createdAt,value
2022-11-26T00:00:17.001Z,31.10
2022-11-26T00:10:16.873Z,28.90
2022-11-26T00:20:16.895Z,27.90
2022-11-26T00:30:16.912Z,23.80
2022-11-26T00:40:16.933Z,26.70
2022-11-26T00:50:16.911Z,26.40
2022-11-26T01:00:16.927Z,25.80
2022-11-26T01:10:16.969Z,25.00
2022-11-26T01:20:18.120Z,24.70
2022-11-26T01:30:16.931Z,26.70
2022-11-26T01:40:16.939Z,29.20
2022-11-26T01:50:16.940Z,27.00
2022-11-26T02:00:17.011Z,28.80
2022-11-26T02:10:16.939Z,27.90
2022-11-26T02:20:16.947Z,29.50
2022-11-26T02:30:16.919Z,29.90
2022-11-26T02:40:17.000Z,28.80
2022-11-26T02:50:16.954Z,28.80
2022-11-26T03:00:17.038Z,28.80
2022-11-26T03:10:16.949Z,28.00
2022-11-26T03:20:16.966Z,28.00
2022-11-26T03:30:16.936Z,25.90
2022-11-26T03:40:16.968Z,26.90
2022-11-26T03:50:16.988Z,27.00
2022-11-26T04:00:16.948Z,25.20
2022-11-26T04:10:16.952Z,24.10
2022-11-26T04:20:16.974Z,22.50
2022-11-26T04:30:16.993Z,22.60
2022-11-26T04:40:16.992Z,25.40
2022-11-26T04:50:16.986Z,25.00
2022-11-26T05:00:16.989Z,23.60
2022-11-26T05:10:16.980Z,24.00
2022-11-26T05:20:17.013Z,21.90
2022-11-26T05:30:16.981Z,22.80
2022-11-26T05:40:17.030Z,19.90
2022-11-26T05:50:16.993Z,18.50
2022-11-26T06:00:17.126Z,18.00
2022-11-26T06:10:17.029Z,18.80
2022-11-26T06:20:17.022Z,17.50
2022-11-26T06:30:17.043Z,17.70
2022-11-26T06:40:17.030Z,16.10
2022-11-26T06:50:17.031Z,17.10
2022-11-26T07:00:17.010Z,18.30
2022-11-26T07:10:17.115Z,16.60
2022-11-26T07:20:17.052Z,17.10
2022-11-26T07:30:17.043Z,16.90
2022-11-26T07:40:17.086Z,15.20
2022-11-26T07:50:17.035Z,15.80
2022-11-26T08:00:17.024Z,15.90
2022-11-26T08:10:17.051Z,16.60
2022-11-26T08:20:17.044Z,16.20
2022-11-26T08:30:17.059Z,15.30
2022-11-26T08:40:17.046Z,15.70
2022-11-26T08:50:17.048Z,15.80
2022-11-26T09:00:17.048Z,15.20
2022-11-26T09:10:17.055Z,16.20
2022-11-26T09:20:17.163Z,17.80
2022-11-26T09:30:17.088Z,18.40
2022-11-26T09:40:17.100Z,20.00
2022-11-26T09:50:17.100Z,18.80
2022-11-26T10:00:17.160Z,19.30
2022-11-26T10:10:17.096Z,20.40
2022-11-26T10:20:17.073Z,19.80
2022-11-26T10:40:17.124Z,20.80
2022-11-26T10:50:45.456Z,22.40
2022-11-26T11:00:17.183Z,23.90
2022-11-26T11:10:17.100Z,28.00
2022-11-26T11:20:17.209Z,26.90
2022-11-26T11:30:17.174Z,29.20
2022-11-26T11:40:17.475Z,28.10
2022-11-26T11:50:17.206Z,27.80
2022-11-26T12:00:17.144Z,27.30
2022-11-26T12:10:17.114Z,26.90
2022-11-26T12:20:17.198Z,26.00
2022-11-26T12:30:17.173Z,25.60
2022-11-26T12:40:17.158Z,25.20
2022-11-26T12:50:17.131Z,24.80
2022-11-26T13:00:19.992Z,25.80
2022-11-26T13:10:17.136Z,27.00
2022-11-26T13:20:17.141Z,27.00
2022-11-26T13:30:17.142Z,27.60
2022-11-26T13:40:17.177Z,31.80
2022-11-26T13:50:17.149Z,31.30
2022-11-26T14:00:17.148Z,31.10
2022-11-26T14:10:17.175Z,32.60
2022-11-26T14:20:17.153Z,31.70
2022-11-26T14:30:17.297Z,36.10
2022-11-26T14:40:17.190Z,34.20
2022-11-26T14:50:17.201Z,34.00
2022-11-26T15:00:17.210Z,37.10
2022-11-26T15:10:17.177Z,37.40
2022-11-26T15:20:17.188Z,41.70
2022-11-26T15:30:17.217Z,38.80
2022-11-26T15:40:17.186Z,40.40
2022-11-26T15:50:17.223Z,41.90
2022-11-26T16:00:17.199Z,39.50
2022-11-26T16:10:17.221Z,44.30
2022-11-26T16:20:17.203Z,37.80
2022-11-26T16:30:17.234Z,40.30
2022-11-26T16:40:17.236Z,44.10
2022-11-26T16:50:17.241Z,43.30
2022-11-26T17:00:17.232Z,45.60
2022-11-26T17:10:17.547Z,48.70
2022-11-26T17:20:17.299Z,45.30
2022-11-26T17:30:17.280Z,44.90
2022-11-26T17:40:17.244Z,49.30
2022-11-26T17:50:17.256Z,48.00
2022-11-26T18:00:17.277Z,46.90
2022-11-26T18:10:17.239Z,59.30
2022-11-26T18:20:17.384Z,49.30
2022-11-26T18:30:18.242Z,39.80
2022-11-26T18:40:17.291Z,47.40
2022-11-26T18:50:17.286Z,47.50
2022-11-26T19:00:17.276Z,51.80
2022-11-26T19:10:17.286Z,45.50
2022-11-26T19:20:17.305Z,44.40
2022-11-26T19:30:17.274Z,42.60
2022-11-26T19:40:17.327Z,45.40
2022-11-26T19:50:17.305Z,61.00
2022-11-26T20:00:17.306Z,46.00
2022-11-26T20:10:17.295Z,42.20
2022-11-26T20:20:17.298Z,58.50
2022-11-26T20:30:17.289Z,42.50
2022-11-26T20:40:17.290Z,42.60
2022-11-26T20:50:17.344Z,45.00
2022-11-26T21:00:17.320Z,40.90
2022-11-26T21:10:17.320Z,46.10
2022-11-26T21:20:17.351Z,47.00
2022-11-26T21:30:17.307Z,41.30
2022-11-26T21:40:17.345Z,33.80
2022-11-26T21:50:17.451Z,33.20
2022-11-26T22:00:17.313Z,33.00
2022-11-26T22:10:17.348Z,31.00
2022-11-26T22:20:17.329Z,31.70
2022-11-26T22:30:17.359Z,34.10
2022-11-26T22:40:17.317Z,28.60
2022-11-26T22:50:17.334Z,30.30
2022-11-26T23:00:17.350Z,28.60
2022-11-26T23:10:17.333Z,29.00
2022-11-26T23:20:17.335Z,29.10
2022-11-26T23:30:17.348Z,30.20
2022-11-26T23:40:17.352Z,27.30
2022-11-26T23:50:17.379Z,25.30
